MSC Carouge — CQFP — position and weather

sailwx.info

Track history (hours):
 
Tides and Currents Weather Stations Pressure Air Temp Water Temp Dewpoint Dewpoint Depression Visibility Wind Speed Wind Dir Waves Ship Positions

MSC Carouge

Last reported at 2018-Jun-16 18:00 UTC. Time now 2018-Jun-18 09:29 UTC.
Position N 33°42' E 025°42'.

Length 282 m; draft 9.8 m.

Type: Ship. MMSI: 255805617.

Wind from 330 at 19 knots

Barometer 1010.2 mb
Air temperature 25.0 ° C
Visibility: greater than 10.8 NM
Dewpoint 17.2 ° C
Water temperature 23.0 ° C

Date/timePositionNaut miles runAvg speedWind from/ knotsBaromVisibWave heightAir tempDewpointWater temp
2018-Jun-16 18:00N 33°42' E 025°42'25717.7 330 / 191010.210.8 25.017.223.0
2018-Jun-16 03:31N 32°47' E 030°42'118.3
2018-Jun-16 03:28N 32°47' E 030°43'818.3
2018-Jun-16 03:00N 32°45' E 030°53'918.4
2018-Jun-16 02:30N 32°43' E 031°03'918.6
2018-Jun-16 02:00N 32°41' E 031°14'918.5
2018-Jun-16 01:30N 32°38' E 031°25'918.5
2018-Jun-16 01:00N 32°36' E 031°36'918.6
2018-Jun-16 00:30N 32°34' E 031°46'918.8
2018-Jun-16 00:00N 32°32' E 031°57'1019.1
2018-Jun-15 23:30N 32°29' E 032°08'1019.3
2018-Jun-15 23:00N 32°27' E 032°19'1019.2
2018-Jun-15 22:30N 32°25' E 032°30'919.2
2018-Jun-15 22:00N 32°22' E 032°41'1019.1
2018-Jun-15 21:30N 32°20' E 032°52'918.9
2018-Jun-15 21:00N 32°18' E 033°03'918.9
2018-Jun-15 20:30N 32°16' E 033°14'919.0
2018-Jun-15 20:00N 32°13' E 033°25'918.9
2018-Jun-15 19:30N 32°11' E 033°35'918.8
2018-Jun-15 19:00N 32°09' E 033°46'918.8
2018-Jun-15 18:30N 32°05' E 033°56'918.7
2018-Jun-15 18:00N 32°01' E 034°06'918.6
2018-Jun-15 17:30N 31°57' E 034°16'918.5
2018-Jun-15 17:00N 31°54' E 034°27'917.5
2018-Jun-15 16:30N 31°52' E 034°37'2 1.2
2018-Jun-15 14:34N 31°50' E 034°39'0 0.1
2018-Jun-15 14:28N 31°50' E 034°39'0 0.0
2018-Jun-15 08:52N 31°50' E 034°39'0 0.0
2018-Jun-15 06:42N 31°50' E 034°39'1 0.0
2018-Jun-14 07:36N 31°51' E 034°38'1 6.8
2018-Jun-14 07:30N 31°52' E 034°38'1 1.3
2018-Jun-14 06:28N 31°53' E 034°38'7 2.8
2018-Jun-14 04:01N 31°57' E 034°31'116.1
2018-Jun-14 03:57N 31°58' E 034°31'818.4
2018-Jun-14 03:30N 32°06' E 034°33'1019.2
2018-Jun-14 03:00N 32°15' E 034°36'1019.2
2018-Jun-14 02:30N 32°24' E 034°39'1419.2
2018-Jun-14 01:46N 32°38' E 034°44'519.1
2018-Jun-14 01:30N 32°42' E 034°46'919.0
2018-Jun-14 01:00N 32°51' E 034°50'8 0.2
2018-Jun-12 09:46N 32°51' E 034°60'1 4.9
2018-Jun-12 09:30N 32°52' E 034°59'2 4.5
2018-Jun-12 08:59N 32°54' E 034°58'1 1.3
2018-Jun-12 08:28N 32°54' E 034°57'710.6
2018-Jun-12 07:50N 32°51' E 034°50'516.2
2018-Jun-12 07:30N 32°46' E 034°47'916.6
2018-Jun-12 06:58N 32°38' E 034°45'816.6
2018-Jun-12 06:30N 32°30' E 034°42'816.6
2018-Jun-12 06:00N 32°22' E 034°40'816.6
2018-Jun-12 05:30N 32°14' E 034°37'816.7
2018-Jun-12 05:01N 32°06' E 034°34'1511.9
2018-Jun-12 03:43N 31°51' E 034°38'0 0.0
2018-Jun-11 03:18N 31°51' E 034°38'0 1.7
2018-Jun-11 03:00N 31°52' E 034°38'0 0.8
2018-Jun-11 02:26N 31°52' E 034°37'3 0.3
2018-Jun-10 18:04N 31°51' E 034°35'0 0.0
2018-Jun-10 13:11N 31°51' E 034°35'0 0.0
2018-Jun-10 10:25N 31°51' E 034°35'0 0.0
2018-Jun-10 09:58N 31°51' E 034°35'1 0.3
2018-Jun-10 05:47N 31°51' E 034°34'512.2
2018-Jun-10 05:20N 31°55' E 034°29'514.0
2018-Jun-10 05:00N 31°60' E 034°27'714.2
2018-Jun-10 04:29N 32°07' E 034°24'714.3
2018-Jun-10 03:59N 32°13' E 034°21'714.4
2018-Jun-10 03:29N 32°20' E 034°18'814.4
2018-Jun-10 02:57N 32°27' E 034°14'1014.5
2018-Jun-10 02:14N 32°37' E 034°10'314.5
2018-Jun-10 02:00N 32°40' E 034°09'714.4
2018-Jun-10 01:30N 32°46' E 034°05'714.3
2018-Jun-10 01:00N 32°53' E 034°02'714.2
2018-Jun-10 00:30N 32°60' E 033°59'714.2
2018-Jun-10 00:00N 33°06' E 033°56'714.3
2018-Jun-09 23:31N 33°13' E 033°52'714.2
2018-Jun-09 23:00N 33°19' E 033°49'713.6
2018-Jun-09 22:31N 33°26' E 033°46'1017.4
2018-Jun-09 21:56N 33°36' E 033°45'1120.1
2018-Jun-09 21:22N 33°45' E 033°37'1 3.2
2018-Jun-09 21:00N 33°46' E 033°36'1020.0
2018-Jun-09 20:30N 33°55' E 033°33'713.7
2018-Jun-09 20:01N 34°00' E 033°27'611.1
2018-Jun-09 19:31N 34°06' E 033°27'914.3
2018-Jun-09 18:54N 34°14' E 033°23'1014.4
2018-Jun-09 18:14N 34°23' E 033°18'414.4
2018-Jun-09 17:58N 34°27' E 033°17'714.3
2018-Jun-09 17:31N 34°32' E 033°13'714.1
2018-Jun-09 17:00N 34°38' E 033°07'5 9.2
2018-Jun-09 16:30N 34°39' E 033°02'1 2.0
2018-Jun-09 15:59N 34°39' E 033°01'0 0.0
2018-Jun-09 14:59N 34°39' E 033°01'4 9.0
2018-Jun-09 14:30N 34°37' E 033°06'0 0.8
2018-Jun-09 13:54N 34°38' E 033°05'4 9.7
2018-Jun-09 13:30N 34°39' E 033°01'0 0.0
2018-Jun-09 13:00N 34°39' E 033°01'0 0.0
2018-Jun-09 12:30N 34°39' E 033°01'0 0.0
2018-Jun-09 12:00N 34°39' E 033°01'0 0.0
2018-Jun-09 11:30N 34°39' E 033°01'0 0.0
2018-Jun-09 10:59N 34°39' E 033°01'0 0.0
2018-Jun-09 10:29N 34°39' E 033°01'0 0.0
2018-Jun-09 09:59N 34°39' E 033°01'0 0.0
2018-Jun-09 09:29N 34°39' E 033°01'0 0.0
2018-Jun-09 08:58N 34°39' E 033°01'0 0.0
2018-Jun-09 08:29N 34°39' E 033°01'0 0.0
2018-Jun-09 07:59N 34°39' E 033°01'0 0.0
2018-Jun-09 07:29N 34°39' E 033°01'0 0.0
2018-Jun-09 06:58N 34°39' E 033°01'0 0.0
2018-Jun-09 06:28N 34°39' E 033°01'0 0.0
2018-Jun-09 05:58N 34°39' E 033°01'0 0.0
2018-Jun-09 05:28N 34°39' E 033°01'0 0.0
2018-Jun-09 04:58N 34°39' E 033°01'0 0.0
2018-Jun-09 04:30N 34°39' E 033°01'0 0.0
2018-Jun-09 03:59N 34°39' E 033°01'0 0.0
2018-Jun-09 03:29N 34°39' E 033°01'0 0.0
2018-Jun-09 02:59N 34°39' E 033°01'0 0.7
2018-Jun-09 02:31N 34°39' E 033°01'2 4.2
2018-Jun-09 02:00N 34°39' E 033°04'3511.0
2018-Jun-08 22:52N 34°26' E 032°24'6818.9
2018-Jun-08 19:17N 34°26' E 031°02'1518.7
2018-Jun-08 18:31N 34°26' E 030°45'018.9
2018-Jun-08 18:31N 34°26' E 030°45'1918.5
2018-Jun-08 17:30N 34°26' E 030°22'918.5
2018-Jun-08 17:01N 34°26' E 030°11'4418.5
2018-Jun-08 14:37N 34°26' E 029°17'218.1
2018-Jun-08 14:30N 34°26' E 029°15'918.0
2018-Jun-08 14:00N 34°26' E 029°04'918.5
2018-Jun-08 13:30N 34°26' E 028°53'918.4
2018-Jun-08 13:01N 34°26' E 028°42'1018.5
2018-Jun-08 12:29N 34°26' E 028°30'25319.3
2018-Jun-07 23:22N 34°44' E 023°23'34819.4
2018-Jun-07 05:23N 35°58' E 016°26'919.2
2018-Jun-07 04:56N 36°00' E 016°15'819.2
2018-Jun-07 04:30N 36°02' E 016°05'1019.3
2018-Jun-07 03:59N 36°04' E 015°53'1119.4
2018-Jun-07 03:26N 36°06' E 015°40'919.6
2018-Jun-07 03:00N 36°08' E 015°30'1119.4
2018-Jun-07 02:26N 36°09' E 015°16'819.2
2018-Jun-07 02:00N 36°11' E 015°06'1019.3
2018-Jun-07 01:29N 36°14' E 014°54'1019.4
2018-Jun-07 00:59N 36°16' E 014°42'1019.5
2018-Jun-07 00:29N 36°18' E 014°31'919.3
2018-Jun-07 00:00N 36°19' E 014°19'919.0
2018-Jun-06 23:30N 36°22' E 014°08'1019.1
2018-Jun-06 23:00N 36°23' E 013°56'1019.3
2018-Jun-06 22:30N 36°27' E 013°45'1019.3
2018-Jun-06 22:00N 36°31' E 013°34'919.1
2018-Jun-06 21:30N 36°35' E 013°23'918.8
2018-Jun-06 21:00N 36°39' E 013°13'919.0
2018-Jun-06 20:30N 36°43' E 013°02'1019.1
2018-Jun-06 19:59N 36°46' E 012°50'1019.2
2018-Jun-06 19:29N 36°49' E 012°39'  
Track history (hours):
 
Tides and Currents Weather Stations Pressure Air Temp Water Temp Dewpoint Dewpoint Depression Visibility Wind Speed Wind Dir Waves Ship Positions

MSC Carouge

Last reported at 2018-Jun-16 18:00 UTC. Time now 2018-Jun-18 09:29 UTC.
Position N 33°42' E 025°42'.

Length 282 m; draft 9.8 m.

Type: Ship. MMSI: 255805617.

Wind from 330 at 19 knots

Barometer 1010.2 mb
Air temperature 25.0 ° C
Visibility: greater than 10.8 NM
Dewpoint 17.2 ° C
Water temperature 23.0 ° C

Date/timePositionNaut miles runAvg speedWind from/ knotsBaromVisibWave heightAir tempDewpointWater temp
2018-Jun-16 18:00N 33°42' E 025°42'25717.7 330 / 191010.210.8 25.017.223.0
2018-Jun-16 03:31N 32°47' E 030°42'118.3
2018-Jun-16 03:28N 32°47' E 030°43'818.3
2018-Jun-16 03:00N 32°45' E 030°53'918.4
2018-Jun-16 02:30N 32°43' E 031°03'918.6
2018-Jun-16 02:00N 32°41' E 031°14'918.5
2018-Jun-16 01:30N 32°38' E 031°25'918.5
2018-Jun-16 01:00N 32°36' E 031°36'918.6
2018-Jun-16 00:30N 32°34' E 031°46'918.8
2018-Jun-16 00:00N 32°32' E 031°57'1019.1
2018-Jun-15 23:30N 32°29' E 032°08'1019.3
2018-Jun-15 23:00N 32°27' E 032°19'1019.2
2018-Jun-15 22:30N 32°25' E 032°30'919.2
2018-Jun-15 22:00N 32°22' E 032°41'1019.1
2018-Jun-15 21:30N 32°20' E 032°52'918.9
2018-Jun-15 21:00N 32°18' E 033°03'918.9
2018-Jun-15 20:30N 32°16' E 033°14'919.0
2018-Jun-15 20:00N 32°13' E 033°25'918.9
2018-Jun-15 19:30N 32°11' E 033°35'918.8
2018-Jun-15 19:00N 32°09' E 033°46'918.8
2018-Jun-15 18:30N 32°05' E 033°56'918.7
2018-Jun-15 18:00N 32°01' E 034°06'918.6
2018-Jun-15 17:30N 31°57' E 034°16'918.5
2018-Jun-15 17:00N 31°54' E 034°27'917.5
2018-Jun-15 16:30N 31°52' E 034°37'2 1.2
2018-Jun-15 14:34N 31°50' E 034°39'0 0.1
2018-Jun-15 14:28N 31°50' E 034°39'0 0.0
2018-Jun-15 08:52N 31°50' E 034°39'0 0.0
2018-Jun-15 06:42N 31°50' E 034°39'1 0.0
2018-Jun-14 07:36N 31°51' E 034°38'1 6.8
2018-Jun-14 07:30N 31°52' E 034°38'1 1.3
2018-Jun-14 06:28N 31°53' E 034°38'7 2.8
2018-Jun-14 04:01N 31°57' E 034°31'116.1
2018-Jun-14 03:57N 31°58' E 034°31'818.4
2018-Jun-14 03:30N 32°06' E 034°33'1019.2
2018-Jun-14 03:00N 32°15' E 034°36'1019.2
2018-Jun-14 02:30N 32°24' E 034°39'1419.2
2018-Jun-14 01:46N 32°38' E 034°44'519.1
2018-Jun-14 01:30N 32°42' E 034°46'919.0
2018-Jun-14 01:00N 32°51' E 034°50'8 0.2
2018-Jun-12 09:46N 32°51' E 034°60'1 4.9
2018-Jun-12 09:30N 32°52' E 034°59'2 4.5
2018-Jun-12 08:59N 32°54' E 034°58'1 1.3
2018-Jun-12 08:28N 32°54' E 034°57'710.6
2018-Jun-12 07:50N 32°51' E 034°50'516.2
2018-Jun-12 07:30N 32°46' E 034°47'916.6
2018-Jun-12 06:58N 32°38' E 034°45'816.6
2018-Jun-12 06:30N 32°30' E 034°42'816.6
2018-Jun-12 06:00N 32°22' E 034°40'816.6
2018-Jun-12 05:30N 32°14' E 034°37'816.7
2018-Jun-12 05:01N 32°06' E 034°34'1511.9
2018-Jun-12 03:43N 31°51' E 034°38'0 0.0
2018-Jun-11 03:18N 31°51' E 034°38'0 1.7
2018-Jun-11 03:00N 31°52' E 034°38'0 0.8
2018-Jun-11 02:26N 31°52' E 034°37'3 0.3
2018-Jun-10 18:04N 31°51' E 034°35'0 0.0
2018-Jun-10 13:11N 31°51' E 034°35'0 0.0
2018-Jun-10 10:25N 31°51' E 034°35'0 0.0
2018-Jun-10 09:58N 31°51' E 034°35'1 0.3
2018-Jun-10 05:47N 31°51' E 034°34'512.2
2018-Jun-10 05:20N 31°55' E 034°29'514.0
2018-Jun-10 05:00N 31°60' E 034°27'714.2
2018-Jun-10 04:29N 32°07' E 034°24'714.3
2018-Jun-10 03:59N 32°13' E 034°21'714.4
2018-Jun-10 03:29N 32°20' E 034°18'814.4
2018-Jun-10 02:57N 32°27' E 034°14'1014.5
2018-Jun-10 02:14N 32°37' E 034°10'314.5
2018-Jun-10 02:00N 32°40' E 034°09'714.4
2018-Jun-10 01:30N 32°46' E 034°05'714.3
2018-Jun-10 01:00N 32°53' E 034°02'714.2
2018-Jun-10 00:30N 32°60' E 033°59'714.2
2018-Jun-10 00:00N 33°06' E 033°56'714.3
2018-Jun-09 23:31N 33°13' E 033°52'714.2
2018-Jun-09 23:00N 33°19' E 033°49'713.6
2018-Jun-09 22:31N 33°26' E 033°46'1017.4
2018-Jun-09 21:56N 33°36' E 033°45'1120.1
2018-Jun-09 21:22N 33°45' E 033°37'1 3.2
2018-Jun-09 21:00N 33°46' E 033°36'1020.0
2018-Jun-09 20:30N 33°55' E 033°33'713.7
2018-Jun-09 20:01N 34°00' E 033°27'611.1
2018-Jun-09 19:31N 34°06' E 033°27'914.3
2018-Jun-09 18:54N 34°14' E 033°23'1014.4
2018-Jun-09 18:14N 34°23' E 033°18'414.4
2018-Jun-09 17:58N 34°27' E 033°17'714.3
2018-Jun-09 17:31N 34°32' E 033°13'714.1
2018-Jun-09 17:00N 34°38' E 033°07'5 9.2
2018-Jun-09 16:30N 34°39' E 033°02'1 2.0
2018-Jun-09 15:59N 34°39' E 033°01'0 0.0
2018-Jun-09 14:59N 34°39' E 033°01'4 9.0
2018-Jun-09 14:30N 34°37' E 033°06'0 0.8
2018-Jun-09 13:54N 34°38' E 033°05'4 9.7
2018-Jun-09 13:30N 34°39' E 033°01'0 0.0
2018-Jun-09 13:00N 34°39' E 033°01'0 0.0
2018-Jun-09 12:30N 34°39' E 033°01'0 0.0
2018-Jun-09 12:00N 34°39' E 033°01'0 0.0
2018-Jun-09 11:30N 34°39' E 033°01'0 0.0
2018-Jun-09 10:59N 34°39' E 033°01'0 0.0
2018-Jun-09 10:29N 34°39' E 033°01'0 0.0
2018-Jun-09 09:59N 34°39' E 033°01'0 0.0
2018-Jun-09 09:29N 34°39' E 033°01'0 0.0
2018-Jun-09 08:58N 34°39' E 033°01'0 0.0
2018-Jun-09 08:29N 34°39' E 033°01'0 0.0
2018-Jun-09 07:59N 34°39' E 033°01'0 0.0
2018-Jun-09 07:29N 34°39' E 033°01'0 0.0
2018-Jun-09 06:58N 34°39' E 033°01'0 0.0
2018-Jun-09 06:28N 34°39' E 033°01'0 0.0
2018-Jun-09 05:58N 34°39' E 033°01'0 0.0
2018-Jun-09 05:28N 34°39' E 033°01'0 0.0
2018-Jun-09 04:58N 34°39' E 033°01'0 0.0
2018-Jun-09 04:30N 34°39' E 033°01'0 0.0
2018-Jun-09 03:59N 34°39' E 033°01'0 0.0
2018-Jun-09 03:29N 34°39' E 033°01'0 0.0
2018-Jun-09 02:59N 34°39' E 033°01'0 0.7
2018-Jun-09 02:31N 34°39' E 033°01'2 4.2
2018-Jun-09 02:00N 34°39' E 033°04'3511.0
2018-Jun-08 22:52N 34°26' E 032°24'6818.9
2018-Jun-08 19:17N 34°26' E 031°02'1518.7
2018-Jun-08 18:31N 34°26' E 030°45'018.9
2018-Jun-08 18:31N 34°26' E 030°45'1918.5
2018-Jun-08 17:30N 34°26' E 030°22'918.5
2018-Jun-08 17:01N 34°26' E 030°11'4418.5
2018-Jun-08 14:37N 34°26' E 029°17'218.1
2018-Jun-08 14:30N 34°26' E 029°15'918.0
2018-Jun-08 14:00N 34°26' E 029°04'918.5
2018-Jun-08 13:30N 34°26' E 028°53'918.4
2018-Jun-08 13:01N 34°26' E 028°42'1018.5
2018-Jun-08 12:29N 34°26' E 028°30'25319.3
2018-Jun-07 23:22N 34°44' E 023°23'34819.4
2018-Jun-07 05:23N 35°58' E 016°26'919.2
2018-Jun-07 04:56N 36°00' E 016°15'819.2
2018-Jun-07 04:30N 36°02' E 016°05'1019.3
2018-Jun-07 03:59N 36°04' E 015°53'1119.4
2018-Jun-07 03:26N 36°06' E 015°40'919.6
2018-Jun-07 03:00N 36°08' E 015°30'1119.4
2018-Jun-07 02:26N 36°09' E 015°16'819.2
2018-Jun-07 02:00N 36°11' E 015°06'1019.3
2018-Jun-07 01:29N 36°14' E 014°54'1019.4
2018-Jun-07 00:59N 36°16' E 014°42'1019.5
2018-Jun-07 00:29N 36°18' E 014°31'919.3
2018-Jun-07 00:00N 36°19' E 014°19'919.0
2018-Jun-06 23:30N 36°22' E 014°08'1019.1
2018-Jun-06 23:00N 36°23' E 013°56'1019.3
2018-Jun-06 22:30N 36°27' E 013°45'1019.3
2018-Jun-06 22:00N 36°31' E 013°34'919.1
2018-Jun-06 21:30N 36°35' E 013°23'918.8
2018-Jun-06 21:00N 36°39' E 013°13'919.0
2018-Jun-06 20:30N 36°43' E 013°02'1019.1
2018-Jun-06 19:59N 36°46' E 012°50'1019.2
2018-Jun-06 19:29N 36°49' E 012°39'  

Dump ship's entire track history